aviador You're here:

LFBO Decoded Metar

TOULOUSE BLAGNAC in FRANCE
Report Time2018-06-18 05:30:00
UTC Time2018-06-18 05:39:17
Flight Rules mvfr MVFR
Wind270° at 08 kt
W.Decomp.*RWY 32: 5.1 kt HW 6.1 kt LCW
W.Rank270° ranks 2
Current wind is below 270° avg. (9.4)
Visibility9999 m
Phenomena:N/A
Clouds:Overcast 026 Hf
Expected CloudBase > 1,200 ft AGL from Temp-Dew spread
Ceiling2,600 ft
Temp15°C (ISA +1)
Dew Point12°C (82% RH)
AAT12.7°C
QNH1026 hPa
Density Alt371 ft
Elevation502 ft
Report Wrong Elevation
Raw Report
METAR LFBO 180530Z AUTO 27008KT 9999 OVC026 15/12 Q1026 NOSIG=

Extra information for LFBO:More info

Metar Taf Metar & Taf Last 4 Metars F.Rules Stats Wind Profile Meteogram Temp Stats Airport Information Weather charts Add Link Nearby VenuesMetar ALERT Operation Metar Decoded Social comments